sensor_id;sensor_type;location;lat;lon;timestamp;P1;durP1;ratioP1;P2;durP2;ratioP2
9270;SDS011;4673;53.458;9.940;2023-11-21T00:00:49;8.60;;;8.60;;
9270;SDS011;4673;53.458;9.940;2023-11-21T00:03:14;9.27;;;9.17;;
9270;SDS011;4673;53.458;9.940;2023-11-21T00:05:40;9.33;;;9.23;;
9270;SDS011;4673;53.458;9.940;2023-11-21T00:08:06;8.47;;;8.40;;
9270;SDS011;4673;53.458;9.940;2023-11-21T00:10:33;9.53;;;9.50;;
9270;SDS011;4673;53.458;9.940;2023-11-21T00:12:59;8.70;;;8.70;;
9270;SDS011;4673;53.458;9.940;2023-11-21T00:15:27;8.27;;;8.27;;
9270;SDS011;4673;53.458;9.940;2023-11-21T00:17:53;8.30;;;8.30;;
9270;SDS011;4673;53.458;9.940;2023-11-21T00:20:19;9.33;;;9.27;;
9270;SDS011;4673;53.458;9.940;2023-11-21T00:22:46;9.30;;;9.20;;
9270;SDS011;4673;53.458;9.940;2023-11-21T00:25:12;8.80;;;8.80;;
9270;SDS011;4673;53.458;9.940;2023-11-21T00:27:40;8.70;;;8.70;;
9270;SDS011;4673;53.458;9.940;2023-11-21T00:30:06;9.10;;;9.10;;
9270;SDS011;4673;53.458;9.940;2023-11-21T00:32:33;8.97;;;8.97;;
9270;SDS011;4673;53.458;9.940;2023-11-21T00:35:00;8.50;;;8.50;;
9270;SDS011;4673;53.458;9.940;2023-11-21T00:37:26;8.77;;;8.77;;
9270;SDS011;4673;53.458;9.940;2023-11-21T00:39:52;8.50;;;8.50;;
9270;SDS011;4673;53.458;9.940;2023-11-21T00:42:18;9.17;;;9.17;;
9270;SDS011;4673;53.458;9.940;2023-11-21T00:44:43;9.30;;;9.30;;
9270;SDS011;4673;53.458;9.940;2023-11-21T00:47:09;9.87;;;9.77;;
9270;SDS011;4673;53.458;9.940;2023-11-21T00:49:35;9.10;;;9.10;;
9270;SDS011;4673;53.458;9.940;2023-11-21T00:52:00;9.73;;;9.73;;
9270;SDS011;4673;53.458;9.940;2023-11-21T00:54:27;8.93;;;8.93;;
9270;SDS011;4673;53.458;9.940;2023-11-21T00:56:53;9.87;;;9.87;;
9270;SDS011;4673;53.458;9.940;2023-11-21T00:59:18;10.53;;;10.43;;
9270;SDS011;4673;53.458;9.940;2023-11-21T01:01:44;12.03;;;11.93;;
9270;SDS011;4673;53.458;9.940;2023-11-21T01:04:09;11.47;;;11.37;;
9270;SDS011;4673;53.458;9.940;2023-11-21T01:06:35;12.53;;;12.43;;
9270;SDS011;4673;53.458;9.940;2023-11-21T01:09:01;11.53;;;11.43;;
9270;SDS011;4673;53.458;9.940;2023-11-21T01:11:33;12.13;;;12.03;;
9270;SDS011;4673;53.458;9.940;2023-11-21T01:14:01;12.67;;;12.57;;
9270;SDS011;4673;53.458;9.940;2023-11-21T01:16:28;12.63;;;12.53;;
9270;SDS011;4673;53.458;9.940;2023-11-21T01:18:54;13.20;;;13.10;;
9270;SDS011;4673;53.458;9.940;2023-11-21T01:21:20;13.73;;;13.63;;
9270;SDS011;4673;53.458;9.940;2023-11-21T01:23:45;13.90;;;13.80;;
9270;SDS011;4673;53.458;9.940;2023-11-21T01:26:12;12.67;;;12.57;;
9270;SDS011;4673;53.458;9.940;2023-11-21T01:28:38;13.97;;;13.87;;
9270;SDS011;4673;53.458;9.940;2023-11-21T01:31:04;13.30;;;13.20;;
9270;SDS011;4673;53.458;9.940;2023-11-21T01:33:29;13.97;;;13.87;;
9270;SDS011;4673;53.458;9.940;2023-11-21T01:35:55;13.93;;;13.83;;
9270;SDS011;4673;53.458;9.940;2023-11-21T01:38:21;15.53;;;15.43;;
9270;SDS011;4673;53.458;9.940;2023-11-21T01:40:47;14.90;;;14.80;;
9270;SDS011;4673;53.458;9.940;2023-11-21T01:43:13;14.30;;;14.20;;
9270;SDS011;4673;53.458;9.940;2023-11-21T01:45:38;15.13;;;15.03;;
9270;SDS011;4673;53.458;9.940;2023-11-21T01:48:04;16.37;;;16.17;;
9270;SDS011;4673;53.458;9.940;2023-11-21T01:50:32;15.27;;;15.17;;
9270;SDS011;4673;53.458;9.940;2023-11-21T01:52:58;15.13;;;15.03;;
9270;SDS011;4673;53.458;9.940;2023-11-21T01:55:26;14.37;;;14.27;;
9270;SDS011;4673;53.458;9.940;2023-11-21T01:57:52;14.53;;;14.43;;
9270;SDS011;4673;53.458;9.940;2023-11-21T02:00:18;14.93;;;14.83;;
9270;SDS011;4673;53.458;9.940;2023-11-21T02:02:44;13.43;;;13.33;;
9270;SDS011;4673;53.458;9.940;2023-11-21T02:05:11;13.87;;;13.77;;
9270;SDS011;4673;53.458;9.940;2023-11-21T02:07:41;11.77;;;11.67;;
9270;SDS011;4673;53.458;9.940;2023-11-21T02:10:10;10.83;;;10.83;;
9270;SDS011;4673;53.458;9.940;2023-11-21T02:12:39;12.20;;;12.10;;
9270;SDS011;4673;53.458;9.940;2023-11-21T02:15:07;12.10;;;12.00;;
9270;SDS011;4673;53.458;9.940;2023-11-21T02:17:41;10.77;;;10.77;;
9270;SDS011;4673;53.458;9.940;2023-11-21T02:20:09;10.53;;;10.43;;
9270;SDS011;4673;53.458;9.940;2023-11-21T02:22:41;9.90;;;9.90;;
9270;SDS011;4673;53.458;9.940;2023-11-21T02:25:10;9.90;;;9.90;;
9270;SDS011;4673;53.458;9.940;2023-11-21T02:27:36;10.00;;;10.00;;
9270;SDS011;4673;53.458;9.940;2023-11-21T02:30:02;9.80;;;9.80;;
9270;SDS011;4673;53.458;9.940;2023-11-21T02:32:30;8.80;;;8.80;;
9270;SDS011;4673;53.458;9.940;2023-11-21T02:34:56;9.77;;;9.77;;
9270;SDS011;4673;53.458;9.940;2023-11-21T02:37:26;9.17;;;9.17;;
9270;SDS011;4673;53.458;9.940;2023-11-21T02:39:51;8.77;;;8.77;;
9270;SDS011;4673;53.458;9.940;2023-11-21T02:42:17;8.10;;;8.10;;
9270;SDS011;4673;53.458;9.940;2023-11-21T02:44:43;6.93;;;6.93;;
9270;SDS011;4673;53.458;9.940;2023-11-21T02:47:09;7.40;;;7.40;;
9270;SDS011;4673;53.458;9.940;2023-11-21T02:49:35;7.23;;;7.23;;
9270;SDS011;4673;53.458;9.940;2023-11-21T02:52:01;7.20;;;7.20;;
9270;SDS011;4673;53.458;9.940;2023-11-21T02:54:27;7.10;;;7.10;;
9270;SDS011;4673;53.458;9.940;2023-11-21T02:56:52;7.37;;;7.37;;
9270;SDS011;4673;53.458;9.940;2023-11-21T02:59:18;6.87;;;6.87;;
9270;SDS011;4673;53.458;9.940;2023-11-21T03:01:44;6.80;;;6.80;;
9270;SDS011;4673;53.458;9.940;2023-11-21T03:04:11;6.90;;;6.90;;
9270;SDS011;4673;53.458;9.940;2023-11-21T03:06:42;7.13;;;7.13;;
9270;SDS011;4673;53.458;9.940;2023-11-21T03:09:09;7.03;;;7.03;;
9270;SDS011;4673;53.458;9.940;2023-11-21T03:11:35;6.20;;;6.20;;
9270;SDS011;4673;53.458;9.940;2023-11-21T03:14:00;7.17;;;7.17;;
9270;SDS011;4673;53.458;9.940;2023-11-21T03:16:26;6.80;;;6.80;;
9270;SDS011;4673;53.458;9.940;2023-11-21T03:18:51;6.47;;;6.47;;
9270;SDS011;4673;53.458;9.940;2023-11-21T03:21:17;7.10;;;7.10;;
9270;SDS011;4673;53.458;9.940;2023-11-21T03:23:44;6.60;;;6.60;;
9270;SDS011;4673;53.458;9.940;2023-11-21T03:26:13;6.30;;;6.30;;
9270;SDS011;4673;53.458;9.940;2023-11-21T03:28:39;5.97;;;5.97;;
9270;SDS011;4673;53.458;9.940;2023-11-21T03:31:04;6.50;;;6.50;;
9270;SDS011;4673;53.458;9.940;2023-11-21T03:33:31;6.70;;;6.70;;
9270;SDS011;4673;53.458;9.940;2023-11-21T03:35:57;6.13;;;6.13;;
9270;SDS011;4673;53.458;9.940;2023-11-21T03:38:23;5.93;;;5.93;;
9270;SDS011;4673;53.458;9.940;2023-11-21T03:40:48;6.90;;;6.90;;
9270;SDS011;4673;53.458;9.940;2023-11-21T03:43:15;6.53;;;6.53;;
9270;SDS011;4673;53.458;9.940;2023-11-21T03:45:41;7.07;;;7.07;;
9270;SDS011;4673;53.458;9.940;2023-11-21T03:48:07;6.30;;;6.30;;
9270;SDS011;4673;53.458;9.940;2023-11-21T03:50:33;6.57;;;6.57;;
9270;SDS011;4673;53.458;9.940;2023-11-21T03:53:00;6.73;;;6.73;;
9270;SDS011;4673;53.458;9.940;2023-11-21T03:55:25;6.13;;;6.13;;
9270;SDS011;4673;53.458;9.940;2023-11-21T03:57:51;6.33;;;6.33;;
9270;SDS011;4673;53.458;9.940;2023-11-21T04:00:17;7.00;;;7.00;;
9270;SDS011;4673;53.458;9.940;2023-11-21T04:02:45;6.33;;;6.33;;
9270;SDS011;4673;53.458;9.940;2023-11-21T04:05:11;7.07;;;7.07;;
9270;SDS011;4673;53.458;9.940;2023-11-21T04:07:37;6.67;;;6.67;;
9270;SDS011;4673;53.458;9.940;2023-11-21T04:10:03;6.83;;;6.83;;
9270;SDS011;4673;53.458;9.940;2023-11-21T04:12:33;6.47;;;6.47;;
9270;SDS011;4673;53.458;9.940;2023-11-21T04:14:58;7.13;;;7.13;;
9270;SDS011;4673;53.458;9.940;2023-11-21T04:17:24;6.67;;;6.67;;
9270;SDS011;4673;53.458;9.940;2023-11-21T04:19:50;6.27;;;6.27;;
9270;SDS011;4673;53.458;9.940;2023-11-21T04:22:15;7.00;;;7.00;;
9270;SDS011;4673;53.458;9.940;2023-11-21T04:24:41;6.30;;;6.30;;
9270;SDS011;4673;53.458;9.940;2023-11-21T04:27:06;6.87;;;6.87;;
9270;SDS011;4673;53.458;9.940;2023-11-21T04:29:33;6.40;;;6.40;;
9270;SDS011;4673;53.458;9.940;2023-11-21T04:31:58;6.90;;;6.90;;
9270;SDS011;4673;53.458;9.940;2023-11-21T04:34:24;7.07;;;7.07;;
9270;SDS011;4673;53.458;9.940;2023-11-21T04:36:50;7.30;;;7.30;;
9270;SDS011;4673;53.458;9.940;2023-11-21T04:39:15;7.07;;;7.07;;
9270;SDS011;4673;53.458;9.940;2023-11-21T04:41:41;6.63;;;6.63;;
9270;SDS011;4673;53.458;9.940;2023-11-21T04:44:07;7.17;;;7.17;;
9270;SDS011;4673;53.458;9.940;2023-11-21T04:46:33;7.90;;;7.90;;
9270;SDS011;4673;53.458;9.940;2023-11-21T04:48:59;7.00;;;7.00;;
9270;SDS011;4673;53.458;9.940;2023-11-21T04:51:24;7.97;;;7.97;;
9270;SDS011;4673;53.458;9.940;2023-11-21T04:53:50;7.90;;;7.90;;
9270;SDS011;4673;53.458;9.940;2023-11-21T04:56:16;6.53;;;6.53;;
9270;SDS011;4673;53.458;9.940;2023-11-21T04:58:42;6.50;;;6.50;;
9270;SDS011;4673;53.458;9.940;2023-11-21T05:01:07;7.00;;;7.00;;
9270;SDS011;4673;53.458;9.940;2023-11-21T05:03:33;6.50;;;6.50;;
9270;SDS011;4673;53.458;9.940;2023-11-21T05:05:59;6.83;;;6.83;;
9270;SDS011;4673;53.458;9.940;2023-11-21T05:08:25;6.90;;;6.90;;
9270;SDS011;4673;53.458;9.940;2023-11-21T05:10:51;7.17;;;7.17;;
9270;SDS011;4673;53.458;9.940;2023-11-21T05:13:18;7.00;;;7.00;;
9270;SDS011;4673;53.458;9.940;2023-11-21T05:15:45;7.50;;;7.50;;
9270;SDS011;4673;53.458;9.940;2023-11-21T05:18:10;7.40;;;7.40;;
9270;SDS011;4673;53.458;9.940;2023-11-21T05:20:38;7.67;;;7.67;;
9270;SDS011;4673;53.458;9.940;2023-11-21T05:23:05;7.50;;;7.50;;
9270;SDS011;4673;53.458;9.940;2023-11-21T05:25:33;7.27;;;7.27;;
9270;SDS011;4673;53.458;9.940;2023-11-21T05:27:58;7.10;;;7.10;;
9270;SDS011;4673;53.458;9.940;2023-11-21T05:30:26;6.80;;;6.80;;
9270;SDS011;4673;53.458;9.940;2023-11-21T05:32:52;7.17;;;7.17;;
9270;SDS011;4673;53.458;9.940;2023-11-21T05:35:18;6.37;;;6.37;;
9270;SDS011;4673;53.458;9.940;2023-11-21T05:37:44;6.67;;;6.67;;
9270;SDS011;4673;53.458;9.940;2023-11-21T05:40:10;7.10;;;7.10;;
9270;SDS011;4673;53.458;9.940;2023-11-21T05:42:38;6.37;;;6.37;;
9270;SDS011;4673;53.458;9.940;2023-11-21T05:45:05;6.53;;;6.53;;
9270;SDS011;4673;53.458;9.940;2023-11-21T05:47:39;7.47;;;7.47;;
9270;SDS011;4673;53.458;9.940;2023-11-21T05:50:06;6.27;;;6.27;;
9270;SDS011;4673;53.458;9.940;2023-11-21T05:52:43;6.40;;;6.40;;
9270;SDS011;4673;53.458;9.940;2023-11-21T05:55:10;6.50;;;6.50;;
9270;SDS011;4673;53.458;9.940;2023-11-21T05:57:36;7.37;;;7.37;;
9270;SDS011;4673;53.458;9.940;2023-11-21T06:00:07;6.33;;;6.33;;
9270;SDS011;4673;53.458;9.940;2023-11-21T06:02:39;7.60;;;7.60;;
9270;SDS011;4673;53.458;9.940;2023-11-21T06:05:09;6.73;;;6.73;;
9270;SDS011;4673;53.458;9.940;2023-11-21T06:07:35;7.33;;;7.33;;
9270;SDS011;4673;53.458;9.940;2023-11-21T06:10:04;6.57;;;6.57;;
9270;SDS011;4673;53.458;9.940;2023-11-21T06:12:34;6.83;;;6.83;;
9270;SDS011;4673;53.458;9.940;2023-11-21T06:15:04;6.70;;;6.70;;
9270;SDS011;4673;53.458;9.940;2023-11-21T06:17:32;7.87;;;7.87;;
9270;SDS011;4673;53.458;9.940;2023-11-21T06:19:58;7.10;;;7.10;;
9270;SDS011;4673;53.458;9.940;2023-11-21T06:22:25;7.60;;;7.60;;
9270;SDS011;4673;53.458;9.940;2023-11-21T06:24:51;7.73;;;7.73;;
9270;SDS011;4673;53.458;9.940;2023-11-21T06:27:17;7.00;;;7.00;;
9270;SDS011;4673;53.458;9.940;2023-11-21T06:29:43;7.17;;;7.17;;
9270;SDS011;4673;53.458;9.940;2023-11-21T06:32:08;7.40;;;7.40;;
9270;SDS011;4673;53.458;9.940;2023-11-21T06:34:34;7.90;;;7.90;;
9270;SDS011;4673;53.458;9.940;2023-11-21T06:37:00;8.13;;;8.13;;
9270;SDS011;4673;53.458;9.940;2023-11-21T06:39:25;7.57;;;7.57;;
9270;SDS011;4673;53.458;9.940;2023-11-21T06:41:52;8.37;;;8.37;;
9270;SDS011;4673;53.458;9.940;2023-11-21T06:44:18;7.10;;;7.10;;
9270;SDS011;4673;53.458;9.940;2023-11-21T06:46:44;7.33;;;7.33;;
9270;SDS011;4673;53.458;9.940;2023-11-21T06:49:10;8.13;;;8.13;;
9270;SDS011;4673;53.458;9.940;2023-11-21T06:51:36;7.47;;;7.47;;
9270;SDS011;4673;53.458;9.940;2023-11-21T06:54:02;7.07;;;7.07;;
9270;SDS011;4673;53.458;9.940;2023-11-21T06:56:27;7.30;;;7.30;;
9270;SDS011;4673;53.458;9.940;2023-11-21T06:58:53;7.57;;;7.57;;
9270;SDS011;4673;53.458;9.940;2023-11-21T07:01:19;7.10;;;7.10;;
9270;SDS011;4673;53.458;9.940;2023-11-21T07:03:45;7.70;;;7.70;;
9270;SDS011;4673;53.458;9.940;2023-11-21T07:06:10;7.70;;;7.70;;
9270;SDS011;4673;53.458;9.940;2023-11-21T07:08:36;7.70;;;7.70;;
9270;SDS011;4673;53.458;9.940;2023-11-21T07:11:03;7.53;;;7.53;;
9270;SDS011;4673;53.458;9.940;2023-11-21T07:13:29;8.30;;;8.30;;
9270;SDS011;4673;53.458;9.940;2023-11-21T07:15:55;7.60;;;7.60;;
9270;SDS011;4673;53.458;9.940;2023-11-21T07:18:21;7.50;;;7.50;;
9270;SDS011;4673;53.458;9.940;2023-11-21T07:20:48;8.00;;;8.00;;
9270;SDS011;4673;53.458;9.940;2023-11-21T07:23:13;7.37;;;7.37;;
9270;SDS011;4673;53.458;9.940;2023-11-21T07:25:40;8.20;;;8.20;;
9270;SDS011;4673;53.458;9.940;2023-11-21T07:28:08;8.70;;;8.70;;
9270;SDS011;4673;53.458;9.940;2023-11-21T07:30:34;7.83;;;7.83;;
9270;SDS011;4673;53.458;9.940;2023-11-21T07:33:00;6.97;;;6.97;;
9270;SDS011;4673;53.458;9.940;2023-11-21T07:35:25;7.37;;;7.37;;
9270;SDS011;4673;53.458;9.940;2023-11-21T07:37:51;7.40;;;7.40;;
9270;SDS011;4673;53.458;9.940;2023-11-21T07:40:17;8.23;;;8.23;;
9270;SDS011;4673;53.458;9.940;2023-11-21T07:42:43;7.90;;;7.90;;
9270;SDS011;4673;53.458;9.940;2023-11-21T07:45:08;8.77;;;8.77;;
9270;SDS011;4673;53.458;9.940;2023-11-21T07:47:34;7.17;;;7.17;;
9270;SDS011;4673;53.458;9.940;2023-11-21T07:50:02;8.10;;;8.10;;
9270;SDS011;4673;53.458;9.940;2023-11-21T07:52:28;7.27;;;7.27;;
9270;SDS011;4673;53.458;9.940;2023-11-21T07:54:54;8.33;;;8.33;;
9270;SDS011;4673;53.458;9.940;2023-11-21T07:57:19;8.80;;;8.80;;
9270;SDS011;4673;53.458;9.940;2023-11-21T07:59:45;8.77;;;8.77;;
9270;SDS011;4673;53.458;9.940;2023-11-21T08:02:11;8.73;;;8.73;;
9270;SDS011;4673;53.458;9.940;2023-11-21T08:04:37;8.37;;;8.37;;
9270;SDS011;4673;53.458;9.940;2023-11-21T08:07:02;8.50;;;8.50;;
9270;SDS011;4673;53.458;9.940;2023-11-21T08:09:28;8.13;;;8.13;;
9270;SDS011;4673;53.458;9.940;2023-11-21T08:11:55;8.20;;;8.20;;
9270;SDS011;4673;53.458;9.940;2023-11-21T08:14:21;8.07;;;8.07;;
9270;SDS011;4673;53.458;9.940;2023-11-21T08:16:47;8.27;;;8.27;;
9270;SDS011;4673;53.458;9.940;2023-11-21T08:19:13;8.63;;;8.63;;
9270;SDS011;4673;53.458;9.940;2023-11-21T08:21:38;7.73;;;7.73;;
9270;SDS011;4673;53.458;9.940;2023-11-21T08:24:08;8.90;;;8.90;;
9270;SDS011;4673;53.458;9.940;2023-11-21T08:26:36;8.37;;;8.37;;
9270;SDS011;4673;53.458;9.940;2023-11-21T08:29:02;8.00;;;8.00;;
9270;SDS011;4673;53.458;9.940;2023-11-21T08:31:28;7.27;;;7.27;;
9270;SDS011;4673;53.458;9.940;2023-11-21T08:33:54;7.97;;;7.97;;
9270;SDS011;4673;53.458;9.940;2023-11-21T08:36:23;6.57;;;6.57;;
9270;SDS011;4673;53.458;9.940;2023-11-21T08:38:49;7.23;;;7.23;;
9270;SDS011;4673;53.458;9.940;2023-11-21T08:41:17;6.20;;;6.20;;
9270;SDS011;4673;53.458;9.940;2023-11-21T08:43:47;6.70;;;6.70;;
9270;SDS011;4673;53.458;9.940;2023-11-21T08:46:13;6.27;;;6.27;;
9270;SDS011;4673;53.458;9.940;2023-11-21T08:48:40;5.57;;;5.57;;
9270;SDS011;4673;53.458;9.940;2023-11-21T08:51:06;5.07;;;5.07;;
9270;SDS011;4673;53.458;9.940;2023-11-21T08:53:34;5.03;;;5.03;;
9270;SDS011;4673;53.458;9.940;2023-11-21T08:56:00;5.13;;;5.13;;
9270;SDS011;4673;53.458;9.940;2023-11-21T08:58:26;4.83;;;4.83;;
9270;SDS011;4673;53.458;9.940;2023-11-21T09:00:52;4.13;;;4.13;;
9270;SDS011;4673;53.458;9.940;2023-11-21T09:03:18;4.73;;;4.73;;
9270;SDS011;4673;53.458;9.940;2023-11-21T09:05:44;4.47;;;4.47;;
9270;SDS011;4673;53.458;9.940;2023-11-21T09:08:09;4.23;;;4.23;;
9270;SDS011;4673;53.458;9.940;2023-11-21T09:10:35;4.90;;;4.90;;
9270;SDS011;4673;53.458;9.940;2023-11-21T09:13:01;4.97;;;4.97;;
9270;SDS011;4673;53.458;9.940;2023-11-21T09:15:27;4.70;;;4.70;;
9270;SDS011;4673;53.458;9.940;2023-11-21T09:17:53;4.13;;;4.13;;
9270;SDS011;4673;53.458;9.940;2023-11-21T09:20:19;4.70;;;4.70;;
9270;SDS011;4673;53.458;9.940;2023-11-21T09:22:47;3.57;;;3.57;;
9270;SDS011;4673;53.458;9.940;2023-11-21T09:25:13;4.70;;;4.70;;
9270;SDS011;4673;53.458;9.940;2023-11-21T09:27:40;4.10;;;4.10;;
9270;SDS011;4673;53.458;9.940;2023-11-21T09:30:06;3.90;;;3.90;;
9270;SDS011;4673;53.458;9.940;2023-11-21T09:32:35;3.77;;;3.77;;
9270;SDS011;4673;53.458;9.940;2023-11-21T09:35:06;3.93;;;3.93;;
9270;SDS011;4673;53.458;9.940;2023-11-21T09:37:33;4.50;;;4.50;;
9270;SDS011;4673;53.458;9.940;2023-11-21T09:40:02;3.30;;;3.30;;
9270;SDS011;4673;53.458;9.940;2023-11-21T09:42:30;3.83;;;3.83;;
9270;SDS011;4673;53.458;9.940;2023-11-21T09:45:05;3.50;;;3.50;;
9270;SDS011;4673;53.458;9.940;2023-11-21T09:47:34;3.73;;;3.73;;
9270;SDS011;4673;53.458;9.940;2023-11-21T09:50:02;3.53;;;3.53;;
9270;SDS011;4673;53.458;9.940;2023-11-21T09:52:28;3.87;;;3.87;;
9270;SDS011;4673;53.458;9.940;2023-11-21T09:54:55;3.07;;;3.07;;
9270;SDS011;4673;53.458;9.940;2023-11-21T09:57:25;3.23;;;3.23;;
9270;SDS011;4673;53.458;9.940;2023-11-21T09:59:53;3.80;;;3.80;;
9270;SDS011;4673;53.458;9.940;2023-11-21T10:02:27;3.30;;;3.30;;
9270;SDS011;4673;53.458;9.940;2023-11-21T10:04:55;3.87;;;3.87;;
9270;SDS011;4673;53.458;9.940;2023-11-21T10:07:21;2.93;;;2.93;;
9270;SDS011;4673;53.458;9.940;2023-11-21T10:09:48;3.37;;;3.37;;
9270;SDS011;4673;53.458;9.940;2023-11-21T10:12:16;3.67;;;3.67;;
9270;SDS011;4673;53.458;9.940;2023-11-21T10:14:42;3.60;;;3.60;;
9270;SDS011;4673;53.458;9.940;2023-11-21T10:17:10;3.50;;;3.50;;
9270;SDS011;4673;53.458;9.940;2023-11-21T10:19:39;3.30;;;3.30;;
9270;SDS011;4673;53.458;9.940;2023-11-21T10:22:05;2.83;;;2.83;;
9270;SDS011;4673;53.458;9.940;2023-11-21T10:24:35;3.13;;;3.13;;
9270;SDS011;4673;53.458;9.940;2023-11-21T10:27:02;2.90;;;2.90;;
9270;SDS011;4673;53.458;9.940;2023-11-21T10:29:31;3.60;;;3.60;;
9270;SDS011;4673;53.458;9.940;2023-11-21T10:32:01;3.57;;;3.57;;
9270;SDS011;4673;53.458;9.940;2023-11-21T10:34:27;3.40;;;3.40;;
9270;SDS011;4673;53.458;9.940;2023-11-21T10:36:53;3.10;;;3.10;;
9270;SDS011;4673;53.458;9.940;2023-11-21T10:39:22;2.90;;;2.90;;
9270;SDS011;4673;53.458;9.940;2023-11-21T10:41:49;3.47;;;3.47;;
9270;SDS011;4673;53.458;9.940;2023-11-21T10:44:16;3.07;;;3.07;;
9270;SDS011;4673;53.458;9.940;2023-11-21T10:46:48;3.07;;;3.07;;
9270;SDS011;4673;53.458;9.940;2023-11-21T10:49:21;2.90;;;2.90;;
9270;SDS011;4673;53.458;9.940;2023-11-21T10:51:56;3.07;;;3.07;;
9270;SDS011;4673;53.458;9.940;2023-11-21T10:54:22;3.30;;;3.30;;
9270;SDS011;4673;53.458;9.940;2023-11-21T10:56:50;3.10;;;3.10;;
9270;SDS011;4673;53.458;9.940;2023-11-21T10:59:24;3.17;;;3.17;;
9270;SDS011;4673;53.458;9.940;2023-11-21T11:01:54;3.20;;;3.20;;
9270;SDS011;4673;53.458;9.940;2023-11-21T11:04:22;4.43;;;4.43;;
9270;SDS011;4673;53.458;9.940;2023-11-21T11:06:56;3.17;;;3.17;;
9270;SDS011;4673;53.458;9.940;2023-11-21T11:09:24;3.00;;;3.00;;
9270;SDS011;4673;53.458;9.940;2023-11-21T11:11:51;2.60;;;2.60;;
9270;SDS011;4673;53.458;9.940;2023-11-21T11:14:18;3.03;;;3.03;;
9270;SDS011;4673;53.458;9.940;2023-11-21T11:16:44;2.90;;;2.90;;
9270;SDS011;4673;53.458;9.940;2023-11-21T11:19:10;3.00;;;3.00;;
9270;SDS011;4673;53.458;9.940;2023-11-21T11:27:30;2.80;;;2.80;;
9270;SDS011;4673;53.458;9.940;2023-11-21T11:33:09;2.77;;;2.77;;
9270;SDS011;4673;53.458;9.940;2023-11-21T11:36:00;2.67;;;2.67;;
9270;SDS011;4673;53.458;9.940;2023-11-21T11:38:31;2.43;;;2.43;;
9270;SDS011;4673;53.458;9.940;2023-11-21T11:41:01;3.17;;;3.17;;
9270;SDS011;4673;53.458;9.940;2023-11-21T11:43:29;2.50;;;2.50;;
9270;SDS011;4673;53.458;9.940;2023-11-21T11:45:57;2.97;;;2.97;;
9270;SDS011;4673;53.458;9.940;2023-11-21T11:48:28;2.30;;;2.30;;
9270;SDS011;4673;53.458;9.940;2023-11-21T11:51:09;2.80;;;2.80;;
9270;SDS011;4673;53.458;9.940;2023-11-21T11:53:43;2.77;;;2.77;;
9270;SDS011;4673;53.458;9.940;2023-11-21T11:58:57;2.77;;;2.77;;
9270;SDS011;4673;53.458;9.940;2023-11-21T12:01:24;2.80;;;2.80;;
9270;SDS011;4673;53.458;9.940;2023-11-21T12:06:36;2.80;;;2.80;;
9270;SDS011;4673;53.458;9.940;2023-11-21T12:09:02;2.70;;;2.70;;
9270;SDS011;4673;53.458;9.940;2023-11-21T12:11:31;2.57;;;2.57;;
9270;SDS011;4673;53.458;9.940;2023-11-21T12:13:57;2.57;;;2.57;;
9270;SDS011;4673;53.458;9.940;2023-11-21T12:16:25;2.57;;;2.57;;
9270;SDS011;4673;53.458;9.940;2023-11-21T12:18:52;2.93;;;2.93;;
9270;SDS011;4673;53.458;9.940;2023-11-21T12:21:19;2.43;;;2.43;;
9270;SDS011;4673;53.458;9.940;2023-11-21T12:23:45;2.70;;;2.70;;
9270;SDS011;4673;53.458;9.940;2023-11-21T12:26:14;3.07;;;3.07;;
9270;SDS011;4673;53.458;9.940;2023-11-21T12:28:40;2.67;;;2.67;;
9270;SDS011;4673;53.458;9.940;2023-11-21T12:31:05;3.00;;;3.00;;
9270;SDS011;4673;53.458;9.940;2023-11-21T12:33:34;2.70;;;2.70;;
9270;SDS011;4673;53.458;9.940;2023-11-21T12:36:00;2.67;;;2.67;;
9270;SDS011;4673;53.458;9.940;2023-11-21T12:38:33;2.30;;;2.30;;
9270;SDS011;4673;53.458;9.940;2023-11-21T12:41:00;2.37;;;2.37;;
9270;SDS011;4673;53.458;9.940;2023-11-21T12:43:25;2.47;;;2.47;;
9270;SDS011;4673;53.458;9.940;2023-11-21T12:45:51;2.90;;;2.90;;
9270;SDS011;4673;53.458;9.940;2023-11-21T12:48:34;2.57;;;2.57;;
9270;SDS011;4673;53.458;9.940;2023-11-21T12:51:04;2.67;;;2.67;;
9270;SDS011;4673;53.458;9.940;2023-11-21T12:53:31;2.63;;;2.63;;
9270;SDS011;4673;53.458;9.940;2023-11-21T12:56:02;3.40;;;3.40;;
9270;SDS011;4673;53.458;9.940;2023-11-21T12:58:31;2.73;;;2.73;;
9270;SDS011;4673;53.458;9.940;2023-11-21T13:00:58;2.57;;;2.57;;
9270;SDS011;4673;53.458;9.940;2023-11-21T13:03:24;2.43;;;2.43;;
9270;SDS011;4673;53.458;9.940;2023-11-21T13:05:51;2.77;;;2.77;;
9270;SDS011;4673;53.458;9.940;2023-11-21T13:08:20;2.30;;;2.30;;
9270;SDS011;4673;53.458;9.940;2023-11-21T13:10:48;3.03;;;3.03;;
9270;SDS011;4673;53.458;9.940;2023-11-21T13:13:16;2.93;;;2.93;;
9270;SDS011;4673;53.458;9.940;2023-11-21T13:15:49;3.10;;;3.10;;
9270;SDS011;4673;53.458;9.940;2023-11-21T13:18:16;2.67;;;2.67;;
9270;SDS011;4673;53.458;9.940;2023-11-21T13:20:42;2.63;;;2.63;;
9270;SDS011;4673;53.458;9.940;2023-11-21T13:23:09;3.00;;;3.00;;
9270;SDS011;4673;53.458;9.940;2023-11-21T13:25:39;3.17;;;3.17;;
9270;SDS011;4673;53.458;9.940;2023-11-21T13:28:06;2.43;;;2.43;;
9270;SDS011;4673;53.458;9.940;2023-11-21T13:30:34;2.90;;;2.90;;
9270;SDS011;4673;53.458;9.940;2023-11-21T13:33:03;2.60;;;2.60;;
9270;SDS011;4673;53.458;9.940;2023-11-21T13:35:33;2.67;;;2.67;;
9270;SDS011;4673;53.458;9.940;2023-11-21T13:38:15;2.77;;;2.77;;
9270;SDS011;4673;53.458;9.940;2023-11-21T13:40:46;2.90;;;2.90;;
9270;SDS011;4673;53.458;9.940;2023-11-21T13:43:14;2.70;;;2.70;;
9270;SDS011;4673;53.458;9.940;2023-11-21T13:45:43;2.63;;;2.63;;
9270;SDS011;4673;53.458;9.940;2023-11-21T13:48:10;2.60;;;2.60;;
9270;SDS011;4673;53.458;9.940;2023-11-21T13:50:42;2.97;;;2.97;;
9270;SDS011;4673;53.458;9.940;2023-11-21T13:53:13;2.70;;;2.70;;
9270;SDS011;4673;53.458;9.940;2023-11-21T13:55:49;2.40;;;2.40;;
9270;SDS011;4673;53.458;9.940;2023-11-21T13:58:23;2.70;;;2.70;;
9270;SDS011;4673;53.458;9.940;2023-11-21T14:01:00;3.00;;;3.00;;
9270;SDS011;4673;53.458;9.940;2023-11-21T14:03:26;2.50;;;2.50;;
9270;SDS011;4673;53.458;9.940;2023-11-21T14:06:04;2.40;;;2.40;;
9270;SDS011;4673;53.458;9.940;2023-11-21T14:08:39;2.43;;;2.43;;
9270;SDS011;4673;53.458;9.940;2023-11-21T14:11:06;3.00;;;3.00;;
9270;SDS011;4673;53.458;9.940;2023-11-21T14:13:32;3.30;;;3.30;;
9270;SDS011;4673;53.458;9.940;2023-11-21T14:15:58;2.70;;;2.70;;
9270;SDS011;4673;53.458;9.940;2023-11-21T14:18:26;2.57;;;2.57;;
9270;SDS011;4673;53.458;9.940;2023-11-21T14:20:56;2.87;;;2.87;;
9270;SDS011;4673;53.458;9.940;2023-11-21T14:23:22;2.97;;;2.97;;
9270;SDS011;4673;53.458;9.940;2023-11-21T14:25:48;2.83;;;2.83;;
9270;SDS011;4673;53.458;9.940;2023-11-21T14:28:15;2.87;;;2.87;;
9270;SDS011;4673;53.458;9.940;2023-11-21T14:30:41;2.50;;;2.50;;
9270;SDS011;4673;53.458;9.940;2023-11-21T14:33:07;3.20;;;3.20;;
9270;SDS011;4673;53.458;9.940;2023-11-21T14:35:36;2.30;;;2.30;;
9270;SDS011;4673;53.458;9.940;2023-11-21T14:38:02;2.30;;;2.30;;
9270;SDS011;4673;53.458;9.940;2023-11-21T14:40:30;2.80;;;2.80;;
9270;SDS011;4673;53.458;9.940;2023-11-21T14:42:59;3.10;;;3.10;;
9270;SDS011;4673;53.458;9.940;2023-11-21T14:45:25;2.50;;;2.50;;
9270;SDS011;4673;53.458;9.940;2023-11-21T14:47:52;2.83;;;2.83;;
9270;SDS011;4673;53.458;9.940;2023-11-21T14:50:33;2.73;;;2.73;;
9270;SDS011;4673;53.458;9.940;2023-11-21T14:53:18;2.30;;;2.30;;
9270;SDS011;4673;53.458;9.940;2023-11-21T14:56:04;2.70;;;2.70;;
9270;SDS011;4673;53.458;9.940;2023-11-21T14:58:32;3.00;;;3.00;;
9270;SDS011;4673;53.458;9.940;2023-11-21T15:00:58;3.07;;;3.07;;
9270;SDS011;4673;53.458;9.940;2023-11-21T15:03:25;2.47;;;2.47;;
9270;SDS011;4673;53.458;9.940;2023-11-21T15:05:58;2.60;;;2.60;;
9270;SDS011;4673;53.458;9.940;2023-11-21T15:08:29;2.60;;;2.60;;
9270;SDS011;4673;53.458;9.940;2023-11-21T15:10:57;2.80;;;2.80;;
9270;SDS011;4673;53.458;9.940;2023-11-21T15:13:23;3.00;;;3.00;;
9270;SDS011;4673;53.458;9.940;2023-11-21T15:15:52;2.57;;;2.57;;
9270;SDS011;4673;53.458;9.940;2023-11-21T15:18:19;2.80;;;2.80;;
9270;SDS011;4673;53.458;9.940;2023-11-21T15:20:46;2.73;;;2.73;;
9270;SDS011;4673;53.458;9.940;2023-11-21T15:23:11;2.57;;;2.57;;
9270;SDS011;4673;53.458;9.940;2023-11-21T15:25:42;2.57;;;2.57;;
9270;SDS011;4673;53.458;9.940;2023-11-21T15:28:09;2.50;;;2.50;;